Time;durP1;ratioP1;P1;durP2;ratioP2;P2;SDS_P1;SDS_P2;PMS_P1;PMS_P2;Temp;Humidity;BMP_temperature;BMP_pressure;BME280_temperature;BME280_humidity;BME280_pressure;Samples;Min_cycle;Max_cycle;Signal;HPM_P1;HPM_P2
2023/12/23 00:02:22;;;;;;;6.60;2.00;;;;;;;1.12;70.16;97679.26;134186;1298;22399;-77
2023/12/23 00:05:23;;;;;;;9.70;2.50;;;;;;;1.12;70.14;97675.66;134269;1298;23064;-76
2023/12/23 00:08:24;;;;;;;;;;;;;;;1.13;70.20;97680.97;134258;1298;22505;-76
2023/12/23 00:11:38;;;;;;;6.70;1.90;;;;;;;1.13;70.48;97678.70;134245;1304;22433;-76
2023/12/23 00:14:41;;;;;;;7.40;2.00;;;;;;;1.13;70.71;97688.09;134272;1298;22316;-77
2023/12/23 00:17:42;;;;;;;10.00;1.90;;;;;;;1.14;70.95;97677.36;134221;1302;22236;-76
2023/12/23 00:20:43;;;;;;;12.20;2.70;;;;;;;1.17;71.27;97679.20;134224;1305;22361;-76
2023/12/23 00:23:44;;;;;;;7.20;2.50;;;;;;;1.17;71.55;97674.61;134204;1298;23343;-76
2023/12/23 00:26:44;;;;;;;7.10;2.20;;;;;;;1.16;71.81;97678.05;134208;1302;22215;-77
2023/12/23 00:29:54;;;;;;;8.00;1.90;;;;;;;1.15;72.01;97673.23;134263;1304;22266;-76
2023/12/23 00:32:55;;;;;;;5.10;1.90;;;;;;;1.16;72.26;97683.80;134138;1298;22365;-75
2023/12/23 00:35:56;;;;;;;6.20;2.20;;;;;;;1.16;72.45;97682.16;134238;1304;23338;-76
2023/12/23 00:38:59;;;;;;;8.40;2.30;;;;;;;1.17;72.46;97681.73;134292;1285;22498;-77
2023/12/23 00:42:00;;;;;;;8.20;2.10;;;;;;;1.17;72.57;97685.39;134229;1298;22272;-76
2023/12/23 00:45:02;;;;;;;9.00;2.00;;;;;;;1.18;72.68;97686.86;134206;1298;22372;-75
2023/12/23 00:48:03;;;;;;;;;;;;;;;1.19;72.96;97689.58;134191;1298;23281;-76
2023/12/23 00:51:06;;;;;;;8.90;1.70;;;;;;;1.18;73.36;97690.14;134263;1301;22248;-76
2023/12/23 00:54:07;;;;;;;8.80;2.60;;;;;;;1.16;73.50;97696.80;134262;1298;23102;-77
2023/12/23 00:57:08;;;;;;;5.50;2.00;;;;;;;1.16;74.51;97698.79;134098;1299;22395;-77
2023/12/23 01:00:12;;;;;;;8.50;2.30;;;;;;;1.16;74.78;97707.66;134244;1298;22437;-77
2023/12/23 01:03:22;;;;;;;6.20;1.70;;;;;;;1.15;75.05;97708.27;134226;1298;22472;-75
2023/12/23 01:06:22;;;;;;;8.10;1.80;;;;;;;1.13;75.16;97712.70;134265;1297;22465;-75
2023/12/23 01:09:23;;;;;;;6.70;2.50;;;;;;;1.10;75.71;97716.42;134295;1301;22207;-77
2023/12/23 01:12:24;;;;;;;4.40;1.60;;;;;;;1.08;75.63;97724.19;134120;1298;22346;-76
2023/12/23 01:15:25;;;;;;;8.70;2.30;;;;;;;1.02;75.86;97733.89;134103;1297;22450;-76
2023/12/23 01:18:25;;;;;;;6.10;1.90;;;;;;;0.94;76.31;97737.88;134251;1298;23145;-76
2023/12/23 01:21:26;;;;;;;;;;;;;;;0.85;76.90;97743.66;134269;1304;22463;-77
2023/12/23 01:24:44;;;;;;;7.10;2.00;;;;;;;0.77;77.18;97756.35;134118;1301;23238;-76
2023/12/23 01:27:47;;;;;;;3.60;1.50;;;;;;;0.67;77.23;97774.11;134063;1301;22502;-76
2023/12/23 01:30:47;;;;;;;5.00;1.60;;;;;;;0.60;77.29;97786.88;134252;1298;23707;-77
2023/12/23 01:33:49;;;;;;;7.60;1.60;;;;;;;0.53;77.88;97786.56;134278;1298;22434;-76
2023/12/23 01:36:50;;;;;;;8.00;1.60;;;;;;;0.45;78.38;97786.64;134302;1298;23241;-77
2023/12/23 01:39:55;;;;;;;4.20;1.70;;;;;;;0.40;78.44;97790.47;134297;1298;22517;-76
2023/12/23 01:42:56;;;;;;;4.20;1.20;;;;;;;0.35;78.68;97791.14;134087;1298;22742;-77
2023/12/23 01:45:59;;;;;;;4.90;1.70;;;;;;;0.31;79.28;97804.27;134298;1298;23112;-77
2023/12/23 01:49:01;;;;;;;5.90;1.20;;;;;;;0.25;79.50;97813.21;134297;1304;22261;-77
2023/12/23 01:52:05;;;;;;;3.40;1.40;;;;;;;0.22;79.60;97808.55;134086;1299;22416;-76
2023/12/23 01:55:06;;;;;;;2.70;1.20;;;;;;;0.18;79.91;97807.33;134270;1298;23508;-77
2023/12/23 01:58:09;;;;;;;1.90;1.10;;;;;;;0.15;80.25;97815.69;134288;1304;23783;-77
2023/12/23 02:01:10;;;;;;;3.50;1.40;;;;;;;0.11;80.06;97821.48;134293;1304;23042;-75
2023/12/23 02:04:11;;;;;;;;;;;;;;;0.08;80.23;97828.73;134304;1304;23377;-77
2023/12/23 02:07:15;;;;;;;1.10;1.00;;;;;;;0.05;80.35;97830.45;134282;1304;22236;-77
2023/12/23 02:10:19;;;;;;;2.70;1.30;;;;;;;0.02;80.60;97840.83;134148;1298;23064;-78
2023/12/23 02:13:45;;;;;;;2.80;1.40;;;;;;;0.00;80.90;97850.41;134289;1304;22371;-77
2023/12/23 02:16:47;;;;;;;3.40;1.20;;;;;;;-0.03;81.40;97848.76;134102;1298;22211;-77
2023/12/23 02:19:48;;;;;;;2.40;1.20;;;;;;;-0.04;81.23;97845.71;134254;1304;23094;-77
2023/12/23 02:22:50;;;;;;;1.20;1.10;;;;;;;-0.05;81.44;97844.60;134275;1304;25606;-77
2023/12/23 02:25:58;;;;;;;;;;;;;;;-0.08;81.45;97847.06;134286;1301;22571;-77
2023/12/23 02:29:12;;;;;;;3.50;1.70;;;;;;;-0.12;81.54;97854.05;134284;1298;22472;-77
2023/12/23 02:32:16;;;;;;;2.20;1.10;;;;;;;-0.17;81.56;97870.68;134314;1304;22386;-77
2023/12/23 02:35:17;;;;;;;2.70;1.00;;;;;;;-0.19;81.68;97873.23;134273;1298;23477;-77
2023/12/23 02:38:41;;;;;;;;;;;;;;;;;;;;;
2023/12/23 02:41:48;;;;;;;7.50;1.40;;;;;;;-0.21;81.81;97888.82;134132;1305;22479;-77
2023/12/23 02:44:52;;;;;;;4.10;1.60;;;;;;;-0.20;81.86;97895.54;133928;1304;22644;-76
2023/12/23 02:47:58;;;;;;;3.80;1.50;;;;;;;-0.18;81.69;97907.55;134298;1304;22213;-76
2023/12/23 02:50:59;;;;;;;3.00;1.10;;;;;;;-0.17;81.38;97914.00;134261;1298;22394;-77
2023/12/23 02:54:20;;;;;;;;;;;;;;;-0.16;81.35;97918.90;134312;1304;22423;-75
2023/12/23 02:57:21;;;;;;;4.10;1.10;;;;;;;-0.14;81.47;97920.42;134265;1304;22415;-76
2023/12/23 03:00:22;;;;;;;3.90;1.40;;;;;;;-0.12;81.10;97926.52;134295;1298;23139;-77
2023/12/23 03:03:22;;;;;;;3.00;1.00;;;;;;;-0.08;80.90;97934.08;134301;1303;22424;-76
2023/12/23 03:06:24;;;;;;;4.50;1.10;;;;;;;-0.05;80.86;97936.77;134262;1302;22316;-77
2023/12/23 03:09:28;;;;;;;1.70;1.10;;;;;;;-0.01;80.77;97946.83;134276;1304;22455;-77
2023/12/23 03:12:31;;;;;;;;;;;;;;;0.04;80.62;97951.16;134165;1301;22484;-76
2023/12/23 03:15:32;;;;;;;1.80;1.10;;;;;;;0.09;80.45;97955.21;134264;1298;22994;-77
2023/12/23 03:18:36;;;;;;;;;;;;;;;0.14;80.17;97964.46;134118;1305;23241;-77
2023/12/23 03:22:03;;;;;;;3.50;1.30;;;;;;;0.19;80.03;97973.27;134279;1298;22468;-77
2023/12/23 03:25:04;;;;;;;3.50;1.20;;;;;;;0.23;79.82;97978.88;134226;1304;23539;-77
2023/12/23 03:28:05;;;;;;;1.50;1.10;;;;;;;0.25;79.37;97993.79;134287;1301;22514;-76
2023/12/23 03:31:09;;;;;;;2.40;1.10;;;;;;;0.27;79.24;97992.20;134279;1297;22391;-78
2023/12/23 03:34:10;;;;;;;2.50;1.40;;;;;;;0.29;78.55;98001.02;134267;1299;22442;-77
2023/12/23 03:37:10;;;;;;;1.90;1.20;;;;;;;0.29;78.23;98010.55;134276;1301;22371;-77
2023/12/23 03:40:11;;;;;;;7.60;1.40;;;;;;;0.31;78.05;98020.17;134286;1298;22231;-77
2023/12/23 03:43:14;;;;;;;;;;;;;;;0.31;77.99;98027.10;134104;1301;22576;-77
2023/12/23 03:46:23;;;;;;;1.90;1.10;;;;;;;0.32;78.06;98035.70;134262;1298;22993;-76
2023/12/23 03:49:24;;;;;;;4.30;1.00;;;;;;;0.30;77.66;98034.48;134244;1301;22546;-77
2023/12/23 03:52:25;;;;;;;5.10;1.30;;;;;;;0.28;76.99;98036.58;134253;1301;22732;-75
2023/12/23 03:55:32;;;;;;;4.60;0.80;;;;;;;0.26;76.39;98044.79;134272;1304;22368;-76
2023/12/23 03:58:33;;;;;;;1.20;0.90;;;;;;;0.23;76.33;98044.19;134272;1298;22455;-76
2023/12/23 04:01:36;;;;;;;2.10;1.20;;;;;;;0.20;75.93;98051.59;134123;1301;22412;-77
2023/12/23 04:04:39;;;;;;;9.10;1.20;;;;;;;0.17;75.93;98056.11;134262;1305;22448;-77
2023/12/23 04:07:42;;;;;;;0.90;0.80;;;;;;;0.16;75.63;98062.88;134273;1304;22467;-77
2023/12/23 04:10:42;;;;;;;1.50;1.00;;;;;;;0.13;75.46;98082.41;134289;1298;22404;-75
2023/12/23 04:14:07;;;;;;;3.50;1.20;;;;;;;0.12;75.40;98094.83;134100;1297;22254;-77
2023/12/23 04:17:11;;;;;;;3.10;0.90;;;;;;;0.12;75.39;98107.18;134057;1304;22388;-77
2023/12/23 04:20:12;;;;;;;1.70;1.10;;;;;;;0.13;74.91;98114.39;134259;1301;22256;-77
2023/12/23 04:23:13;;;;;;;1.90;0.80;;;;;;;0.15;75.00;98123.91;134275;1298;23041;-76
2023/12/23 04:26:14;;;;;;;;;;;;;;;0.17;74.99;98133.65;134167;1304;22493;-77
2023/12/23 04:29:15;;;;;;;1.90;1.00;;;;;;;0.16;74.36;98138.48;134146;1304;23123;-77
2023/12/23 04:32:16;;;;;;;3.10;1.00;;;;;;;0.15;74.05;98146.06;134141;1298;23063;-77
2023/12/23 04:35:17;;;;;;;2.30;1.10;;;;;;;0.10;74.11;98156.04;134206;1297;22361;-77
2023/12/23 04:38:21;;;;;;;3.40;1.40;;;;;;;0.10;74.00;98167.89;134127;1304;22438;-77
2023/12/23 04:41:23;;;;;;;4.20;1.10;;;;;;;0.09;73.85;98175.02;134174;1298;23028;-78
2023/12/23 04:44:24;;;;;;;;;;;;;;;0.10;73.16;98180.11;134099;1304;22471;-76
2023/12/23 04:47:25;;;;;;;1.90;1.10;;;;;;;0.08;73.29;98181.85;134129;1304;22430;-77
2023/12/23 04:50:32;;;;;;;2.40;1.00;;;;;;;0.06;72.94;98185.68;134127;1305;23187;-77
2023/12/23 04:53:33;;;;;;;1.70;1.00;;;;;;;0.06;73.00;98202.08;134266;1298;22347;-77
2023/12/23 04:56:35;;;;;;;1.70;1.00;;;;;;;0.01;73.19;98205.77;134049;1304;23107;-76
2023/12/23 04:59:36;;;;;;;1.10;1.00;;;;;;;-0.02;73.20;98215.65;134273;1283;23739;-78
2023/12/23 05:02:37;;;;;;;1.80;1.10;;;;;;;-0.06;73.41;98218.59;134268;1298;22411;-78
2023/12/23 05:05:40;;;;;;;1.20;1.10;;;;;;;-0.10;73.33;98231.49;134090;1301;22220;-77
2023/12/23 05:08:44;;;;;;;0.70;0.70;;;;;;;-0.14;73.61;98227.70;134151;1298;22418;-76
2023/12/23 05:11:45;;;;;;;2.10;1.10;;;;;;;-0.18;73.76;98226.70;134114;1305;22259;-77
2023/12/23 05:14:45;;;;;;;3.40;1.10;;;;;;;-0.21;73.70;98232.56;134220;1304;22345;-78
2023/12/23 05:17:46;;;;;;;1.90;1.00;;;;;;;-0.25;73.83;98243.40;134258;1298;22380;-77
2023/12/23 05:20:47;;;;;;;2.30;1.00;;;;;;;-0.28;73.68;98240.92;134064;1304;238785;-77
2023/12/23 05:23:48;;;;;;;;;;;;;;;-0.29;73.88;98251.76;134259;1298;23107;-77
2023/12/23 05:26:51;;;;;;;2.90;0.90;;;;;;;-0.34;73.69;98255.96;134240;1298;22226;-76
2023/12/23 05:29:55;;;;;;;3.90;1.10;;;;;;;-0.36;73.99;98262.61;134177;1299;22389;-78
2023/12/23 05:32:56;;;;;;;3.10;1.20;;;;;;;-0.40;73.95;98261.31;134272;1298;22448;-77
2023/12/23 05:35:56;;;;;;;2.40;1.00;;;;;;;-0.42;74.04;98266.88;134271;1298;22446;-77
2023/12/23 05:38:57;;;;;;;;;;;;;;;-0.44;74.36;98274.85;134264;1298;22579;-75
2023/12/23 05:42:10;;;;;;;1.80;1.00;;;;;;;-0.47;74.34;98283.44;134265;1297;23028;-78
2023/12/23 05:45:11;;;;;;;2.20;1.10;;;;;;;-0.53;74.78;98290.73;134250;1298;22572;-78
2023/12/23 05:48:12;;;;;;;2.10;1.40;;;;;;;-0.58;74.99;98301.63;134266;1299;22142;-78
2023/12/23 05:51:13;;;;;;;2.20;1.00;;;;;;;-0.59;75.10;98305.73;134261;1305;23296;-78
2023/12/23 05:54:14;;;;;;;2.60;1.20;;;;;;;-0.60;75.65;98309.14;134236;1301;22419;-78
2023/12/23 05:57:16;;;;;;;1.90;1.00;;;;;;;-0.60;75.85;98320.77;134245;1298;22360;-78
2023/12/23 06:00:19;;;;;;;;;;;;;;;-0.62;75.95;98326.04;133985;1305;22481;-78
2023/12/23 06:03:20;;;;;;;1.20;1.10;;;;;;;-0.65;76.79;98331.16;134244;1305;22360;-78
2023/12/23 06:06:23;;;;;;;;;;;;;;;-0.65;76.76;98334.92;134284;1304;23134;-78
2023/12/23 06:09:24;;;;;;;1.90;1.00;;;;;;;-0.64;77.10;98342.52;134268;1298;22388;-78
2023/12/23 06:12:34;;;;;;;1.40;1.10;;;;;;;-0.65;77.42;98353.48;134260;1301;22294;-78
2023/12/23 06:15:38;;;;;;;3.80;1.00;;;;;;;-0.64;77.49;98351.02;134232;1298;23040;-79
2023/12/23 06:18:41;;;;;;;5.30;1.70;;;;;;;-0.60;77.25;98353.77;134222;1298;22439;-79
2023/12/23 06:21:45;;;;;;;;;;;;;;;-0.58;77.24;98355.48;134269;1298;22519;-76
2023/12/23 06:24:46;;;;;;;2.90;1.10;;;;;;;-0.57;77.45;98355.77;134260;1304;22466;-79
2023/12/23 06:27:47;;;;;;;2.00;1.40;;;;;;;-0.58;77.24;98361.25;134250;1304;22242;-78
2023/12/23 06:31:19;;;;;;;;;;;;;;;;;;;;;
2023/12/23 06:34:20;;;;;;;3.30;1.60;;;;;;;-0.65;77.52;98369.30;134193;1297;23111;-79
2023/12/23 06:37:21;;;;;;;2.70;1.10;;;;;;;-0.67;77.50;98368.15;134263;1298;22280;-80
2023/12/23 06:40:22;;;;;;;2.80;1.40;;;;;;;-0.68;77.53;98375.38;134237;1298;22144;-80
2023/12/23 06:43:22;;;;;;;2.40;1.50;;;;;;;-0.71;77.82;98371.62;134258;1298;22431;-79
2023/12/23 06:46:23;;;;;;;3.10;1.00;;;;;;;-0.73;77.70;98383.39;134268;1297;22252;-81
2023/12/23 06:49:29;;;;;;;;;;;;;;;-0.76;78.00;98378.96;134234;1298;22442;-82
2023/12/23 06:52:30;;;;;;;4.40;1.30;;;;;;;-0.76;78.06;98389.60;134193;1298;23254;-81
2023/12/23 06:55:40;;;;;;;4.90;1.40;;;;;;;-0.77;78.20;98390.04;134244;1298;22242;-81
2023/12/23 06:59:09;;;;;;;5.00;1.70;;;;;;;-0.77;78.24;98385.38;134235;1304;22556;-79
2023/12/23 07:02:13;;;;;;;3.70;1.50;;;;;;;-0.77;78.15;98386.88;134230;1298;22210;-80
2023/12/23 07:05:22;;;;;;;2.50;1.60;;;;;;;-0.78;77.93;98379.22;134247;1298;22411;-81
2023/12/23 07:08:23;;;;;;;3.70;1.80;;;;;;;-0.78;78.07;98379.67;134119;1297;22407;-79
2023/12/23 07:11:24;;;;;;;3.40;1.70;;;;;;;-0.78;78.29;98384.34;134212;1298;24969;-80
2023/12/23 07:14:25;;;;;;;2.80;1.60;;;;;;;-0.77;78.11;98393.16;134215;1297;22378;-79
2023/12/23 07:17:26;;;;;;;;;;;;;;;-0.74;78.13;98388.77;134263;1301;22521;-80
2023/12/23 07:20:27;;;;;;;3.30;1.80;;;;;;;-0.71;78.41;98387.06;134226;1298;22354;-81
2023/12/23 07:23:28;;;;;;;4.20;1.60;;;;;;;-0.64;78.28;98385.19;134253;1298;22273;-79
2023/12/23 07:26:30;;;;;;;5.70;1.80;;;;;;;-0.53;78.11;98389.65;134220;1298;22431;-84
2023/12/23 07:29:31;;;;;;;2.90;1.60;;;;;;;-0.42;78.14;98389.83;134226;1298;22412;-79
2023/12/23 07:32:31;;;;;;;2.90;1.60;;;;;;;-0.30;78.22;98382.52;134224;1293;22500;-79
2023/12/23 07:35:32;;;;;;;6.50;1.80;;;;;;;-0.17;77.94;98380.92;134191;1298;23115;-80
2023/12/23 07:38:33;;;;;;;4.80;1.50;;;;;;;0.00;78.08;98368.09;134219;1304;22281;-79
2023/12/23 07:41:33;;;;;;;6.50;1.80;;;;;;;0.17;77.78;98371.23;134217;1292;22927;-78
2023/12/23 07:44:37;;;;;;;3.40;1.50;;;;;;;0.34;77.47;98371.20;134231;1294;22329;-78
2023/12/23 07:47:38;;;;;;;4.70;1.50;;;;;;;0.35;77.37;98374.92;134176;1298;22462;-80
2023/12/23 07:50:39;;;;;;;5.60;1.50;;;;;;;0.23;77.14;98376.66;134212;1298;22392;-81
2023/12/23 07:53:40;;;;;;;5.20;1.60;;;;;;;0.16;77.26;98371.42;134189;1295;22388;-81
2023/12/23 07:56:41;;;;;;;5.00;1.80;;;;;;;0.10;77.29;98368.15;134067;1298;22336;-77
2023/12/23 07:59:42;;;;;;;3.60;1.90;;;;;;;0.05;77.46;98358.73;134206;1298;23306;-75
2023/12/23 08:02:43;;;;;;;7.30;1.90;;;;;;;0.04;77.45;98366.32;134177;1304;22447;-78
2023/12/23 08:05:44;;;;;;;6.80;2.00;;;;;;;0.04;77.61;98361.42;134179;1298;22478;-81
2023/12/23 08:08:48;;;;;;;;;;;;;;;0.05;77.61;98361.34;134216;1298;23368;-80
2023/12/23 08:11:48;;;;;;;5.60;1.90;;;;;;;0.05;77.80;98356.48;134188;1298;22349;-78
2023/12/23 08:14:49;;;;;;;7.80;2.20;;;;;;;0.06;77.73;98348.25;134188;1298;23498;-80
2023/12/23 08:17:50;;;;;;;14.50;3.90;;;;;;;0.09;77.64;98341.00;134197;1298;22377;-79
2023/12/23 08:20:50;;;;;;;15.60;3.00;;;;;;;0.11;77.79;98335.90;134189;1298;22420;-81
2023/12/23 08:23:51;;;;;;;14.00;4.20;;;;;;;0.13;77.85;98328.77;134195;1298;22205;-80
2023/12/23 08:26:52;;;;;;;10.80;4.00;;;;;;;0.15;77.81;98322.87;134202;1298;22358;-81
2023/12/23 08:29:52;;;;;;;9.10;3.30;;;;;;;0.18;77.69;98324.51;134164;1298;22477;-81
2023/12/23 08:32:53;;;;;;;16.60;6.70;;;;;;;0.22;77.77;98321.70;134174;1301;22489;-81
2023/12/23 08:35:58;;;;;;;10.20;4.70;;;;;;;0.26;77.81;98329.85;134178;1298;22410;-81
2023/12/23 08:38:59;;;;;;;10.50;3.70;;;;;;;0.30;77.71;98326.89;134152;1298;22421;-81
2023/12/23 08:42:00;;;;;;;;;;;;;;;0.33;77.72;98320.83;134183;1298;22472;-80
2023/12/23 08:45:01;;;;;;;12.00;3.30;;;;;;;0.36;77.60;98314.64;134221;1295;22405;-82
2023/12/23 08:48:01;;;;;;;14.40;3.40;;;;;;;0.39;77.32;98313.27;134148;1298;22395;-81
2023/12/23 08:51:02;;;;;;;12.10;4.60;;;;;;;0.44;76.96;98313.33;134189;1298;22371;-81
2023/12/23 08:54:05;;;;;;;;;;;;;;;0.50;77.07;98315.92;134213;1298;23488;-79
2023/12/23 08:57:06;;;;;;;19.10;5.00;;;;;;;0.54;77.11;98323.55;134276;1298;22371;-81
2023/12/23 09:00:08;;;;;;;9.00;2.80;;;;;;;0.57;77.08;98330.86;134181;1301;22358;-82
2023/12/23 09:03:08;;;;;;;23.50;4.70;;;;;;;0.60;77.06;98319.43;133889;1298;22369;-82
2023/12/23 09:06:11;;;;;;;27.50;4.50;;;;;;;0.64;76.81;98320.13;134109;1298;22267;-81
2023/12/23 09:09:12;;;;;;;12.60;4.90;;;;;;;0.67;76.75;98318.29;134240;1298;23481;-81
2023/12/23 09:12:12;;;;;;;21.00;6.80;;;;;;;0.69;77.04;98317.70;134245;1297;22365;-86
2023/12/23 09:15:13;;;;;;;13.00;4.00;;;;;;;0.72;76.78;98315.70;134241;1301;22313;-79
2023/12/23 09:18:14;;;;;;;22.40;7.00;;;;;;;0.76;76.92;98305.04;134055;1304;22436;-81
2023/12/23 09:21:25;;;;;;;35.70;9.90;;;;;;;0.80;76.89;98309.73;134280;1294;23051;-80
2023/12/23 09:24:29;;;;;;;24.50;3.80;;;;;;;0.82;76.99;98316.81;134223;1298;22360;-80
2023/12/23 09:27:31;;;;;;;31.50;8.90;;;;;;;0.83;77.00;98308.03;134166;1298;22249;-80
2023/12/23 09:30:31;;;;;;;28.30;8.10;;;;;;;0.86;76.89;98306.89;134276;1283;22957;-81
2023/12/23 09:33:39;;;;;;;16.60;5.00;;;;;;;0.88;76.93;98311.33;134230;1298;23097;-82
2023/12/23 09:36:40;;;;;;;16.80;6.80;;;;;;;0.93;77.23;98326.44;134253;1298;22378;-81
2023/12/23 09:39:41;;;;;;;18.10;3.90;;;;;;;0.97;77.11;98315.58;134194;1298;22358;-82
2023/12/23 09:42:42;;;;;;;9.60;2.60;;;;;;;1.00;77.23;98309.86;134213;1301;22362;-79
2023/12/23 09:45:49;;;;;;;13.20;3.40;;;;;;;1.03;77.40;98309.20;134218;1301;23010;-80
2023/12/23 09:48:52;;;;;;;14.30;3.10;;;;;;;1.06;77.51;98302.63;134201;1298;22507;-82
2023/12/23 09:51:55;;;;;;;7.30;2.60;;;;;;;1.10;77.47;98291.10;134278;1298;22426;-82
2023/12/23 09:54:57;;;;;;;15.60;3.60;;;;;;;1.14;77.43;98292.96;134087;1301;23074;-81
2023/12/23 09:58:06;;;;;;;10.70;2.90;;;;;;;1.19;77.55;98288.33;134092;1304;22357;-79
2023/12/23 10:01:08;;;;;;;10.60;2.50;;;;;;;1.21;77.55;98277.67;134242;1298;22525;-78
2023/12/23 10:04:19;;;;;;;9.00;3.20;;;;;;;1.24;77.50;98277.30;134266;1298;23004;-81
2023/12/23 10:07:23;;;;;;;12.20;3.00;;;;;;;1.26;77.64;98278.48;134278;1298;22363;-79
2023/12/23 10:10:25;;;;;;;9.40;2.90;;;;;;;1.28;77.75;98276.59;134272;1297;22380;-77
2023/12/23 10:13:26;;;;;;;9.20;3.40;;;;;;;1.29;77.91;98277.50;134234;1304;22547;-78
2023/12/23 10:16:26;;;;;;;;;;;;;;;1.30;78.08;98268.72;134239;1298;22475;-79
2023/12/23 10:19:27;;;;;;;17.20;3.90;;;;;;;1.31;78.32;98271.11;134216;1298;23189;-78
2023/12/23 10:22:28;;;;;;;16.80;2.80;;;;;;;1.32;78.39;98267.45;134245;1301;23136;-78
2023/12/23 10:25:34;;;;;;;8.30;2.80;;;;;;;1.34;78.48;98268.81;134252;1302;22272;-78
2023/12/23 10:28:41;;;;;;;8.90;3.00;;;;;;;1.38;78.47;98263.80;134215;1305;22513;-77
2023/12/23 10:31:48;;;;;;;10.20;2.90;;;;;;;1.40;78.67;98261.01;134209;1302;22416;-76
2023/12/23 10:34:58;;;;;;;10.60;2.80;;;;;;;1.41;78.86;98257.55;134230;1299;22442;-76
2023/12/23 10:38:23;;;;;;;11.60;2.70;;;;;;;1.44;78.83;98251.37;134193;1305;22241;-78
2023/12/23 10:41:52;;;;;;;9.60;2.50;;;;;;;1.44;79.11;98250.81;134321;1301;22233;-77
2023/12/23 10:44:59;;;;;;;9.90;2.50;;;;;;;1.45;79.54;98247.95;134249;1299;23151;-76
2023/12/23 10:48:23;;;;;;;19.50;6.60;;;;;;;1.46;79.77;98248.89;134213;1299;22384;-79
2023/12/23 10:51:28;;;;;;;25.90;8.10;;;;;;;1.46;80.06;98249.73;134229;1302;22410;-77
2023/12/23 10:54:30;;;;;;;15.50;4.30;;;;;;;1.46;80.60;98251.61;134257;1298;22464;-77
2023/12/23 10:57:36;;;;;;;18.80;4.90;;;;;;;1.45;80.65;98242.72;134245;1304;22458;-77
2023/12/23 11:00:46;;;;;;;6.40;2.60;;;;;;;1.41;81.10;98241.48;134099;1298;22459;-76
2023/12/23 11:03:54;;;;;;;11.30;2.90;;;;;;;1.38;81.36;98243.59;134279;1298;22261;-77
2023/12/23 11:07:01;;;;;;;;;;;;;;;1.33;81.76;98239.14;134294;1304;23133;-77
2023/12/23 11:10:04;;;;;;;5.30;2.60;;;;;;;1.28;82.10;98239.11;134190;1299;23141;-76
2023/12/23 11:13:07;;;;;;;11.20;2.60;;;;;;;1.23;82.36;98240.31;134271;1298;22414;-77
2023/12/23 11:16:11;;;;;;;7.50;2.70;;;;;;;1.20;82.77;98242.20;134068;1304;22347;-76
2023/12/23 11:19:12;;;;;;;11.40;4.80;;;;;;;1.19;82.78;98244.94;134257;1298;22382;-76
2023/12/23 11:22:24;;;;;;;9.70;4.00;;;;;;;1.17;83.18;98242.20;134249;1296;22813;-76
2023/12/23 11:25:45;;;;;;;6.90;2.80;;;;;;;1.13;83.62;98244.10;134269;1296;22433;-75
2023/12/23 11:28:48;;;;;;;13.20;5.20;;;;;;;1.10;83.86;98246.70;134260;1297;22192;-76
2023/12/23 11:31:49;;;;;;;18.60;6.90;;;;;;;1.06;84.15;98239.91;134244;1301;23203;-77
2023/12/23 11:34:51;;;;;;;10.00;5.00;;;;;;;1.03;84.53;98244.23;134302;1298;22462;-77
2023/12/23 11:37:58;;;;;;;7.30;2.90;;;;;;;0.99;84.96;98246.42;134036;1300;23344;-77
2023/12/23 11:41:00;;;;;;;7.60;2.60;;;;;;;0.94;85.03;98247.91;134188;1298;23197;-76
2023/12/23 11:44:01;;;;;;;4.80;2.30;;;;;;;0.92;85.26;98252.73;134244;1298;23190;-78
2023/12/23 11:47:18;;;;;;;10.30;3.60;;;;;;;0.89;85.33;98253.95;134283;1299;23107;-78
2023/12/23 11:50:19;;;;;;;9.30;3.10;;;;;;;0.86;85.94;98242.92;134199;1298;22519;-78
2023/12/23 11:53:19;;;;;;;7.90;2.80;;;;;;;0.81;86.11;98239.26;134239;1302;23552;-78
2023/12/23 11:56:23;;;;;;;4.80;2.70;;;;;;;0.75;86.33;98239.14;134246;1304;22384;-78
2023/12/23 11:59:24;;;;;;;5.70;2.40;;;;;;;0.68;86.78;98234.25;134250;1301;22497;-78
2023/12/23 12:02:25;;;;;;;3.50;2.10;;;;;;;0.60;87.35;98236.08;134222;1298;22372;-79
2023/12/23 12:05:29;;;;;;;5.30;2.60;;;;;;;0.52;87.92;98238.48;134248;1299;22456;-79
2023/12/23 12:08:30;;;;;;;4.60;2.50;;;;;;;0.44;87.94;98241.27;134310;1298;22386;-80
2023/12/23 12:11:32;;;;;;;17.80;6.80;;;;;;;0.39;88.03;98242.66;134267;1297;23132;-77
2023/12/23 12:14:41;;;;;;;4.90;2.60;;;;;;;0.32;88.68;98243.85;134276;1289;22382;-78
2023/12/23 12:17:41;;;;;;;6.70;3.20;;;;;;;0.23;88.81;98243.31;134227;1298;22284;-75
2023/12/23 12:20:42;;;;;;;5.50;2.60;;;;;;;0.14;89.14;98252.20;134287;1298;22370;-75
2023/12/23 12:23:43;;;;;;;;;;;;;;;0.06;89.24;98247.09;134304;1304;22519;-76
2023/12/23 12:26:44;;;;;;;4.00;2.40;;;;;;;-0.02;89.61;98254.02;134179;1286;22440;-75
2023/12/23 12:29:50;;;;;;;3.30;2.10;;;;;;;-0.10;89.85;98253.07;134243;1298;22462;-75
2023/12/23 12:32:51;;;;;;;3.50;2.30;;;;;;;-0.16;89.99;98255.60;134249;1298;23530;-76
2023/12/23 12:36:11;;;;;;;;;;;;;;;;;;;;;
2023/12/23 12:39:14;;;;;;;7.20;2.40;;;;;;;-0.29;90.23;98259.24;134226;1286;22450;-76
2023/12/23 12:42:15;;;;;;;4.30;1.70;;;;;;;-0.33;90.67;98259.91;134256;1298;22572;-75
2023/12/23 12:45:26;;;;;;;5.30;2.30;;;;;;;-0.37;90.99;98264.29;134260;1300;23415;-75
2023/12/23 12:48:30;;;;;;;3.60;2.30;;;;;;;-0.40;91.07;98269.33;134228;1298;22260;-76
2023/12/23 12:51:31;;;;;;;3.60;2.20;;;;;;;-0.43;91.71;98271.48;134248;1298;23406;-75
2023/12/23 12:54:33;;;;;;;8.60;2.30;;;;;;;-0.46;91.71;98279.02;134195;1296;22579;-72
2023/12/23 12:57:34;;;;;;;5.60;2.50;;;;;;;-0.47;91.85;98284.98;134105;1298;22498;-73
2023/12/23 13:00:40;;;;;;;4.70;2.50;;;;;;;-0.46;92.03;98282.27;134172;1298;22274;-72
2023/12/23 13:03:45;;;;;;;6.90;3.00;;;;;;;-0.47;92.02;98292.25;134189;1299;22479;-73
2023/12/23 13:06:49;;;;;;;5.40;2.50;;;;;;;-0.48;92.27;98293.05;133998;1301;22365;-72
2023/12/23 13:10:26;;;;;;;6.20;2.50;;;;;;;-0.49;92.44;98294.42;134216;1298;22389;-72
2023/12/23 13:13:27;;;;;;;5.10;2.20;;;;;;;-0.51;92.71;98296.64;134212;1298;22861;-72
2023/12/23 13:16:36;;;;;;;11.80;2.90;;;;;;;-0.52;93.21;98300.92;134236;1298;22517;-72
2023/12/23 13:19:40;;;;;;;8.20;4.50;;;;;;;-0.54;93.00;98303.83;134277;1291;22269;-72
2023/12/23 13:22:43;;;;;;;;;;;;;;;-0.53;93.08;98304.00;134044;1298;23213;-72
2023/12/23 13:25:46;;;;;;;6.30;2.90;;;;;;;-0.55;93.34;98312.47;134246;1298;22405;-72
2023/12/23 13:28:50;;;;;;;8.20;3.70;;;;;;;-0.55;93.28;98314.79;133973;1299;22351;-72
2023/12/23 13:32:00;;;;;;;;;;;;;;;-0.56;93.29;98319.54;133982;1298;22592;-72
2023/12/23 13:35:12;;;;;;;6.50;3.70;;;;;;;-0.56;93.09;98317.96;134206;1298;22367;-72
2023/12/23 13:38:19;;;;;;;5.50;3.50;;;;;;;-0.54;93.39;98323.69;134185;1298;23603;-72
2023/12/23 13:41:29;;;;;;;6.50;3.60;;;;;;;-0.54;94.06;98324.79;134254;1298;22448;-74
2023/12/23 13:45:01;;;;;;;10.90;5.90;;;;;;;-0.56;94.02;98329.80;134201;1298;22312;-74
2023/12/23 13:48:03;;;;;;;8.20;4.60;;;;;;;-0.57;94.04;98335.63;134230;1298;22387;-74
2023/12/23 13:51:04;;;;;;;;;;;;;;;-0.57;94.22;98333.90;134276;1298;23270;-74
2023/12/23 13:54:15;;;;;;;6.30;4.30;;;;;;;-0.59;94.46;98336.86;134263;1298;22270;-74
2023/12/23 13:57:18;;;;;;;8.30;4.80;;;;;;;-0.59;94.39;98341.23;134299;1298;24912;-74
2023/12/23 14:00:20;;;;;;;6.30;4.10;;;;;;;-0.60;94.47;98342.29;134252;1298;22395;-74
2023/12/23 14:03:30;;;;;;;10.20;5.30;;;;;;;-0.60;94.41;98350.98;134239;1298;22395;-74
2023/12/23 14:06:34;;;;;;;8.90;4.90;;;;;;;-0.59;94.32;98355.38;134008;1298;22466;-74
2023/12/23 14:09:38;;;;;;;8.20;4.50;;;;;;;-0.58;94.76;98352.36;134144;1298;23238;-75
2023/12/23 14:12:54;;;;;;;12.70;4.50;;;;;;;-0.58;94.74;98350.30;133912;1301;22360;-74
2023/12/23 14:15:57;;;;;;;5.50;3.40;;;;;;;-0.58;94.80;98347.51;133941;1301;22422;-75
2023/12/23 14:19:40;;;;;;;7.80;3.90;;;;;;;-0.57;94.96;98355.61;133855;1301;23203;-74
2023/12/23 14:23:15;;;;;;;6.50;3.00;;;;;;;-0.56;95.29;98363.85;133847;1298;22591;-74
2023/12/23 14:26:41;;;;;;;5.10;2.60;;;;;;;-0.55;95.52;98371.91;133740;1304;22463;-73
2023/12/23 14:29:49;;;;;;;3.70;2.70;;;;;;;-0.54;95.87;98371.66;133516;1304;23045;-72
2023/12/23 14:32:59;;;;;;;4.40;2.40;;;;;;;-0.54;95.95;98378.02;133217;1306;22274;-72
2023/12/23 14:36:00;;;;;;;5.80;2.90;;;;;;;-0.54;96.22;98385.70;133476;1303;22563;-74